createdAt,value
2022-09-09T00:03:09.018Z,12.18
2022-09-09T00:06:21.543Z,12.43
2022-09-09T00:09:28.658Z,12.07
2022-09-09T00:12:41.508Z,12.50
2022-09-09T00:15:55.546Z,11.73
2022-09-09T00:19:05.209Z,12.80
2022-09-09T00:22:18.242Z,11.55
2022-09-09T00:25:31.433Z,12.35
2022-09-09T00:28:40.966Z,12.00
2022-09-09T00:31:43.798Z,11.63
2022-09-09T00:34:51.215Z,11.65
2022-09-09T00:38:00.176Z,12.13
2022-09-09T00:41:08.536Z,11.90
2022-09-09T00:44:27.112Z,11.85
2022-09-09T00:47:43.450Z,11.68
2022-09-09T00:50:53.312Z,12.30
2022-09-09T00:54:28.627Z,12.70
2022-09-09T00:57:35.016Z,12.13
2022-09-09T01:00:44.350Z,12.70
2022-09-09T01:03:54.101Z,12.90
2022-09-09T01:07:18.516Z,12.60
2022-09-09T01:10:42.639Z,13.52
2022-09-09T01:13:47.733Z,12.77
2022-09-09T01:16:50.968Z,12.98
2022-09-09T01:20:06.331Z,13.45
2022-09-09T01:23:35.210Z,13.48
2022-09-09T01:26:41.536Z,13.25
2022-09-09T01:29:44.217Z,14.07
2022-09-09T01:32:48.605Z,14.63
2022-09-09T01:35:56.361Z,13.75
2022-09-09T01:39:00.903Z,15.65
2022-09-09T01:42:07.087Z,17.17
2022-09-09T01:45:10.944Z,18.08
2022-09-09T01:48:13.521Z,18.38
2022-09-09T01:51:16.064Z,18.17
2022-09-09T01:54:21.327Z,16.67
2022-09-09T01:57:29.719Z,16.38
2022-09-09T02:00:36.746Z,17.00
2022-09-09T02:03:39.314Z,16.70
2022-09-09T02:06:42.454Z,19.52
2022-09-09T02:09:49.193Z,19.88
2022-09-09T02:12:57.820Z,17.30
2022-09-09T02:16:06.795Z,20.17
2022-09-09T02:19:14.176Z,17.98
2022-09-09T02:22:19.762Z,17.45
2022-09-09T02:25:25.807Z,18.20
2022-09-09T02:28:34.195Z,19.58
2022-09-09T02:31:38.968Z,20.40
2022-09-09T02:34:44.787Z,20.38
2022-09-09T02:37:48.068Z,20.35
2022-09-09T02:40:50.696Z,17.85
2022-09-09T02:43:54.726Z,18.48
2022-09-09T02:47:15.229Z,18.20
2022-09-09T02:50:22.109Z,21.27
2022-09-09T02:53:30.026Z,18.88
2022-09-09T02:56:39.195Z,18.83
2022-09-09T02:59:45.442Z,19.10
2022-09-09T03:02:48.059Z,19.48
2022-09-09T03:05:50.677Z,19.55
2022-09-09T03:08:55.163Z,17.35
2022-09-09T03:11:57.793Z,18.25
2022-09-09T03:15:01.775Z,20.25
2022-09-09T03:18:04.355Z,18.52
2022-09-09T03:21:07.933Z,20.20
2022-09-09T03:24:10.684Z,20.23
2022-09-09T03:27:13.209Z,19.67
2022-09-09T03:30:17.748Z,18.75
2022-09-09T03:33:20.328Z,18.17
2022-09-09T03:36:25.500Z,18.17
2022-09-09T03:39:28.059Z,18.60
2022-09-09T03:42:31.665Z,18.33
2022-09-09T03:45:38.173Z,18.25
2022-09-09T03:48:43.792Z,20.15
2022-09-09T03:51:46.310Z,19.27
2022-09-09T03:54:53.043Z,19.90
2022-09-09T03:57:58.500Z,19.95
2022-09-09T04:01:06.040Z,19.73
2022-09-09T04:04:09.910Z,18.02
2022-09-09T04:07:12.860Z,19.73
2022-09-09T04:10:16.832Z,19.63
2022-09-09T04:13:21.793Z,19.90
2022-09-09T04:16:27.236Z,19.23
2022-09-09T04:19:29.833Z,20.42
2022-09-09T04:22:32.982Z,20.08
2022-09-09T04:25:35.944Z,19.90
2022-09-09T04:28:39.320Z,20.08
2022-09-09T04:31:44.511Z,17.10
2022-09-09T04:34:48.794Z,19.00
2022-09-09T04:37:53.504Z,19.88
2022-09-09T04:40:58.121Z,18.98
2022-09-09T04:44:01.878Z,17.65
2022-09-09T04:47:06.005Z,18.50
2022-09-09T04:50:09.901Z,18.63
2022-09-09T04:53:14.661Z,17.70
2022-09-09T04:56:19.341Z,17.05
2022-09-09T04:59:22.873Z,17.17
2022-09-09T05:02:31.352Z,18.67
2022-09-09T05:05:35.713Z,17.05
2022-09-09T05:08:38.970Z,18.20
2022-09-09T05:11:41.734Z,15.45
2022-09-09T05:14:44.640Z,16.05
2022-09-09T05:17:48.718Z,16.90
2022-09-09T05:20:52.019Z,15.60
2022-09-09T05:23:54.717Z,16.13
2022-09-09T05:26:59.139Z,17.35
2022-09-09T05:30:03.871Z,16.75
2022-09-09T05:33:10.317Z,17.00
2022-09-09T05:36:15.053Z,16.85
2022-09-09T05:39:17.554Z,15.25
2022-09-09T05:42:19.995Z,16.10
2022-09-09T05:45:22.472Z,17.15
2022-09-09T05:48:26.383Z,16.48
2022-09-09T05:51:31.939Z,17.23
2022-09-09T05:54:34.569Z,17.13
2022-09-09T05:57:37.032Z,17.60
2022-09-09T06:00:39.476Z,17.95
2022-09-09T06:03:45.236Z,17.05
2022-09-09T06:06:47.711Z,16.23
2022-09-09T06:09:52.351Z,17.27
2022-09-09T06:12:55.421Z,16.30
2022-09-09T06:15:59.365Z,15.68
2022-09-09T06:19:04.759Z,16.27
2022-09-09T06:22:07.330Z,15.30
2022-09-09T06:25:10.979Z,15.15
2022-09-09T06:28:14.488Z,15.43
2022-09-09T06:31:24.120Z,14.05
2022-09-09T06:34:31.315Z,14.57
2022-09-09T06:37:33.846Z,14.05
2022-09-09T06:40:36.591Z,13.60
2022-09-09T06:43:39.156Z,13.45
2022-09-09T06:46:41.932Z,12.65
2022-09-09T06:49:48.342Z,11.50
2022-09-09T06:52:51.010Z,11.07
2022-09-09T06:55:53.464Z,10.52
2022-09-09T06:58:58.012Z,9.38
2022-09-09T07:02:00.636Z,9.43
2022-09-09T07:05:05.166Z,8.70
2022-09-09T07:08:07.600Z,7.70
2022-09-09T07:11:12.584Z,7.35
2022-09-09T07:14:15.496Z,7.68
2022-09-09T07:17:17.914Z,6.63
2022-09-09T07:20:21.716Z,5.68
2022-09-09T07:23:24.353Z,6.80
2022-09-09T07:26:29.467Z,6.10
2022-09-09T07:29:32.295Z,6.00
2022-09-09T07:32:34.746Z,5.35
2022-09-09T07:35:38.735Z,5.03
2022-09-09T07:38:41.675Z,4.57
2022-09-09T07:41:45.756Z,4.35
2022-09-09T07:44:48.211Z,3.80
2022-09-09T07:47:50.802Z,4.00
2022-09-09T07:50:54.731Z,3.35
2022-09-09T07:53:59.478Z,3.30
2022-09-09T07:57:01.898Z,3.25
2022-09-09T08:00:06.002Z,3.47
2022-09-09T08:03:08.652Z,2.78
2022-09-09T08:06:13.614Z,2.80
2022-09-09T08:09:17.503Z,3.40
2022-09-09T08:12:19.993Z,3.05
2022-09-09T08:15:22.458Z,3.35
2022-09-09T08:18:25.075Z,3.03
2022-09-09T08:21:30.749Z,2.65
2022-09-09T08:24:33.501Z,2.55
2022-09-09T08:27:36.095Z,2.30
2022-09-09T08:30:39.074Z,2.33
2022-09-09T08:33:42.388Z,2.20
2022-09-09T08:36:47.173Z,1.80
2022-09-09T08:39:54.017Z,1.90
2022-09-09T08:43:03.887Z,2.05
2022-09-09T08:46:11.607Z,1.70
2022-09-09T08:49:29.448Z,1.20
2022-09-09T08:52:40.029Z,1.50
2022-09-09T08:55:47.405Z,1.73
2022-09-09T08:58:51.647Z,1.38
2022-09-09T09:02:04.764Z,1.15
2022-09-09T09:05:21.192Z,1.10
2022-09-09T09:08:34.738Z,1.20
2022-09-09T09:11:39.848Z,1.27
2022-09-09T09:14:44.617Z,1.23
2022-09-09T09:17:47.783Z,1.30
2022-09-09T09:20:59.508Z,1.15
2022-09-09T09:24:03.889Z,1.02
2022-09-09T09:27:15.014Z,1.20
2022-09-09T09:30:28.988Z,0.95
2022-09-09T09:33:41.706Z,1.30
2022-09-09T09:36:47.326Z,1.30
2022-09-09T09:40:06.523Z,1.10
2022-09-09T09:43:22.214Z,1.40
2022-09-09T09:46:27.214Z,1.20
2022-09-09T09:49:30.607Z,1.08
2022-09-09T09:52:35.907Z,1.40
2022-09-09T09:55:57.120Z,1.17
2022-09-09T09:59:00.167Z,0.98
2022-09-09T10:02:24.247Z,1.20
2022-09-09T10:05:31.576Z,1.25
2022-09-09T10:08:47.431Z,1.50
2022-09-09T10:11:59.384Z,1.33
2022-09-09T10:15:09.253Z,1.38
2022-09-09T10:18:24.517Z,1.20
2022-09-09T10:21:43.857Z,1.58
2022-09-09T10:25:13.313Z,1.17
2022-09-09T10:28:34.973Z,1.27
2022-09-09T10:31:47.641Z,1.33
2022-09-09T10:34:59.190Z,1.30
2022-09-09T10:38:15.779Z,1.45
2022-09-09T10:41:22.198Z,1.20
2022-09-09T10:44:59.686Z,1.15
2022-09-09T10:48:14.312Z,1.38
2022-09-09T10:51:26.358Z,1.05
2022-09-09T10:54:44.927Z,1.27
2022-09-09T10:57:50.187Z,1.10
2022-09-09T11:00:58.407Z,1.17
2022-09-09T11:04:07.578Z,1.00
2022-09-09T11:07:18.518Z,0.98
2022-09-09T11:10:26.649Z,1.65
2022-09-09T11:13:37.123Z,1.00
2022-09-09T11:16:49.165Z,1.00
2022-09-09T11:19:51.885Z,1.20
2022-09-09T11:23:01.232Z,1.17
2022-09-09T11:26:07.005Z,1.15
2022-09-09T11:29:29.511Z,1.25
2022-09-09T11:33:09.109Z,0.90
2022-09-09T11:36:28.847Z,0.90
2022-09-09T11:39:55.781Z,0.90
2022-09-09T11:43:07.443Z,1.48
2022-09-09T11:46:10.791Z,1.10
2022-09-09T11:49:29.649Z,1.27
2022-09-09T11:52:39.126Z,1.33
2022-09-09T11:55:42.018Z,1.10
2022-09-09T11:58:55.404Z,1.00
2022-09-09T12:01:59.274Z,1.48
2022-09-09T12:05:07.480Z,1.27
2022-09-09T12:08:13.007Z,0.93
2022-09-09T12:11:26.594Z,1.00
2022-09-09T12:14:38.425Z,1.45
2022-09-09T12:17:45.313Z,1.10
2022-09-09T12:20:59.267Z,1.00
2022-09-09T12:24:09.122Z,0.77
2022-09-09T12:27:20.649Z,0.75
2022-09-09T12:30:27.588Z,1.10
2022-09-09T12:33:37.052Z,0.90
2022-09-09T12:36:43.208Z,1.05
2022-09-09T12:39:49.595Z,0.95
2022-09-09T12:42:52.290Z,1.15
2022-09-09T12:45:58.911Z,1.20
2022-09-09T12:49:01.467Z,0.90
2022-09-09T12:52:10.864Z,0.85
2022-09-09T12:55:19.852Z,1.00
2022-09-09T12:58:22.886Z,1.23
2022-09-09T13:01:27.443Z,1.00
2022-09-09T13:04:30.069Z,1.08
2022-09-09T13:07:33.862Z,1.00
2022-09-09T13:11:01.809Z,1.17
2022-09-09T13:14:04.555Z,1.33
2022-09-09T13:17:08.998Z,1.10
2022-09-09T13:20:18.734Z,1.00
2022-09-09T13:23:23.678Z,0.98
2022-09-09T13:26:28.157Z,1.40
2022-09-09T13:29:32.270Z,1.02
2022-09-09T13:32:34.681Z,1.52
2022-09-09T13:35:47.794Z,1.02
2022-09-09T13:39:00.462Z,0.88
2022-09-09T13:42:04.759Z,1.15
2022-09-09T13:45:08.455Z,1.05
2022-09-09T13:48:14.547Z,1.30
2022-09-09T13:51:34.148Z,1.27
2022-09-09T13:54:37.888Z,0.90
2022-09-09T13:57:40.351Z,0.93
2022-09-09T14:00:43.895Z,0.90
2022-09-09T14:03:46.361Z,0.98
2022-09-09T14:06:49.789Z,0.75
2022-09-09T14:09:53.581Z,1.00
2022-09-09T14:12:57.046Z,1.20
2022-09-09T14:15:59.490Z,1.08
2022-09-09T14:19:02.211Z,1.00
2022-09-09T14:22:05.819Z,0.75
2022-09-09T14:25:10.442Z,1.00
2022-09-09T14:28:13.783Z,0.88
2022-09-09T14:31:18.592Z,0.90
2022-09-09T14:34:21.160Z,1.23
2022-09-09T14:37:23.632Z,0.63
2022-09-09T14:40:27.469Z,1.25
2022-09-09T14:43:31.189Z,0.63
2022-09-09T14:46:34.294Z,0.90
2022-09-09T14:49:39.089Z,1.25
2022-09-09T14:52:43.090Z,1.00
2022-09-09T14:55:47.718Z,0.98
2022-09-09T14:58:50.306Z,1.10
2022-09-09T15:01:52.880Z,1.23
2022-09-09T15:04:58.227Z,0.98
2022-09-09T15:08:00.642Z,1.23
2022-09-09T15:11:06.135Z,1.02
2022-09-09T15:14:10.027Z,0.93
2022-09-09T15:17:13.038Z,1.13
2022-09-09T15:20:17.640Z,0.90
2022-09-09T15:23:20.146Z,1.00
2022-09-09T15:26:24.410Z,1.30
2022-09-09T15:29:27.087Z,0.88
2022-09-09T15:32:29.995Z,1.00
2022-09-09T15:35:32.522Z,0.95
2022-09-09T15:38:34.957Z,0.90
2022-09-09T15:41:38.734Z,1.10
2022-09-09T15:44:43.233Z,0.95
2022-09-09T15:47:46.244Z,1.08
2022-09-09T15:50:48.713Z,0.90
2022-09-09T15:53:55.853Z,0.90
2022-09-09T15:57:01.306Z,1.02
2022-09-09T16:00:05.907Z,1.05
2022-09-09T16:03:08.486Z,1.25
2022-09-09T16:06:11.593Z,0.93
2022-09-09T16:09:14.129Z,1.20
2022-09-09T16:12:18.059Z,1.00
2022-09-09T16:15:23.422Z,0.85
2022-09-09T16:18:25.869Z,0.95
2022-09-09T16:21:30.904Z,1.17
2022-09-09T16:24:33.401Z,1.23
2022-09-09T16:27:37.147Z,1.13
2022-09-09T16:30:39.968Z,0.88
2022-09-09T16:33:42.645Z,1.15
2022-09-09T16:36:46.186Z,1.02
2022-09-09T16:39:48.692Z,0.90
2022-09-09T16:42:52.683Z,1.05
2022-09-09T16:45:55.218Z,0.90
2022-09-09T16:48:59.693Z,1.23
2022-09-09T16:52:02.483Z,0.90
2022-09-09T16:55:06.053Z,0.70
2022-09-09T16:58:10.636Z,0.93
2022-09-09T17:01:15.014Z,0.90
2022-09-09T17:04:21.560Z,0.77
2022-09-09T17:07:24.371Z,1.15
2022-09-09T17:10:27.288Z,1.13
2022-09-09T17:13:31.133Z,1.02
2022-09-09T17:16:36.036Z,0.90
2022-09-09T17:19:38.669Z,1.02
2022-09-09T17:22:41.090Z,1.10
2022-09-09T17:25:44.175Z,1.10
2022-09-09T17:28:48.046Z,1.33
2022-09-09T17:31:50.483Z,1.17
2022-09-09T17:34:53.973Z,1.00
2022-09-09T17:37:57.015Z,1.13
2022-09-09T17:41:03.311Z,1.30
2022-09-09T17:47:15.612Z,1.13
2022-09-09T17:50:18.734Z,1.13
2022-09-09T17:53:21.282Z,2.53
2022-09-09T17:56:24.986Z,2.70
2022-09-09T17:59:28.879Z,4.32
2022-09-09T18:02:31.373Z,1.90
2022-09-09T18:05:33.961Z,1.58
2022-09-09T18:08:37.363Z,1.80
2022-09-09T18:11:43.905Z,1.42
2022-09-09T18:14:48.437Z,1.63
2022-09-09T18:17:50.870Z,1.33
2022-09-09T18:21:01.693Z,1.52
2022-09-09T18:24:06.767Z,1.40
2022-09-09T18:27:09.285Z,2.13
2022-09-09T18:30:14.629Z,1.90
2022-09-09T18:33:17.179Z,2.22
2022-09-09T18:36:21.581Z,2.60
2022-09-09T18:39:27.167Z,1.88
2022-09-09T18:42:30.166Z,1.50
2022-09-09T18:45:38.258Z,1.60
2022-09-09T18:48:41.027Z,1.50
2022-09-09T18:51:44.855Z,1.55
2022-09-09T18:54:48.177Z,1.73
2022-09-09T18:57:50.725Z,1.70
2022-09-09T19:00:54.527Z,1.75
2022-09-09T19:03:57.940Z,1.63
2022-09-09T19:07:00.433Z,1.83
2022-09-09T19:10:03.162Z,1.55
2022-09-09T19:13:05.606Z,1.38
2022-09-09T19:16:12.341Z,1.33
2022-09-09T19:19:17.130Z,1.27
2022-09-09T19:22:19.627Z,1.95
2022-09-09T19:25:22.232Z,1.50
2022-09-09T19:28:25.461Z,1.67
2022-09-09T19:31:30.337Z,1.33
2022-09-09T19:34:33.305Z,1.48
2022-09-09T19:37:36.352Z,1.33
2022-09-09T19:40:40.356Z,1.80
2022-09-09T19:43:43.036Z,1.65
2022-09-09T19:46:47.378Z,1.67
2022-09-09T19:49:50.498Z,1.52
2022-09-09T19:52:55.075Z,1.33
2022-09-09T19:55:57.547Z,1.23
2022-09-09T19:59:01.173Z,1.27
2022-09-09T20:02:05.255Z,1.45
2022-09-09T20:05:08.706Z,1.05
2022-09-09T20:08:11.129Z,1.58
2022-09-09T20:11:14.839Z,1.30
2022-09-09T20:14:18.217Z,1.10
2022-09-09T20:17:22.051Z,1.73
2022-09-09T20:20:24.759Z,1.10
2022-09-09T20:23:28.257Z,1.50
2022-09-09T20:26:33.528Z,0.95
2022-09-09T20:29:37.113Z,1.05
2022-09-09T20:32:41.979Z,2.30
2022-09-09T20:35:44.424Z,2.13
2022-09-09T20:38:48.288Z,1.80
2022-09-09T20:41:51.108Z,1.63
2022-09-09T20:44:53.572Z,1.90
2022-09-09T20:47:57.413Z,1.30
2022-09-09T20:51:05.255Z,0.98
2022-09-09T20:54:10.662Z,1.17
2022-09-09T20:57:14.572Z,1.08
2022-09-09T21:00:17.153Z,1.70
2022-09-09T21:03:21.909Z,1.40
2022-09-09T21:06:24.475Z,1.60
2022-09-09T21:09:26.922Z,1.40
2022-09-09T21:16:51.467Z,1.70
2022-09-09T21:19:57.286Z,1.20
2022-09-09T21:23:00.042Z,1.45
2022-09-09T21:26:03.903Z,1.42
2022-09-09T21:29:06.524Z,1.60
2022-09-09T21:32:08.989Z,1.33
2022-09-09T21:35:13.347Z,1.05
2022-09-09T21:38:17.806Z,1.38
2022-09-09T21:41:20.301Z,1.20
2022-09-09T21:44:22.694Z,0.90
2022-09-09T21:47:25.121Z,1.20
2022-09-09T21:50:29.450Z,1.08
2022-09-09T21:53:32.340Z,1.20
2022-09-09T21:56:35.738Z,1.42
2022-09-09T21:59:38.163Z,1.17
2022-09-09T22:02:41.881Z,1.10
2022-09-09T22:05:50.706Z,1.40
2022-09-09T22:08:57.226Z,1.33
2022-09-09T22:11:59.880Z,1.10
2022-09-09T22:15:02.438Z,1.67
2022-09-09T22:18:05.286Z,1.10
2022-09-09T22:21:11.060Z,1.33
2022-09-09T22:24:13.539Z,1.20
2022-09-09T22:27:16.919Z,1.25
2022-09-09T22:30:20.714Z,0.95
2022-09-09T22:33:24.209Z,0.80
2022-09-09T22:36:28.832Z,0.88
2022-09-09T22:39:31.423Z,1.10
2022-09-09T22:42:34.867Z,1.52
2022-09-09T22:45:37.291Z,1.23
2022-09-09T22:48:40.568Z,1.10
2022-09-09T22:51:44.584Z,1.45
2022-09-09T22:54:48.334Z,1.15
2022-09-09T22:57:50.920Z,1.02
2022-09-09T23:00:53.886Z,1.17
2022-09-09T23:03:59.162Z,1.30
2022-09-09T23:07:03.485Z,1.60
2022-09-09T23:10:07.331Z,0.98
2022-09-09T23:13:10.257Z,1.40
2022-09-09T23:16:15.679Z,0.98
2022-09-09T23:19:19.368Z,1.30
2022-09-09T23:22:24.451Z,1.13
2022-09-09T23:25:28.335Z,1.30
2022-09-09T23:28:32.043Z,1.23
2022-09-09T23:31:38.484Z,1.00
2022-09-09T23:34:41.170Z,1.23
2022-09-09T23:37:44.913Z,0.95
2022-09-09T23:40:47.417Z,1.10
2022-09-09T23:43:50.551Z,1.02
2022-09-09T23:46:53.052Z,1.20
2022-09-09T23:49:55.501Z,1.00
2022-09-09T23:52:59.277Z,1.35
2022-09-09T23:56:01.692Z,1.10
2022-09-09T23:59:05.361Z,1.00
